Ashley, Michigan
Current Conditions -  °F | °C
As of 10:55 PM on Friday 24 Oct 2014 (Local Time) from KAMN Reporting Station
Overcast Overcast  
Wind Chill: 41°   Ceiling: 900
Heat Index: 41°   Visibility: 0.5mi
Dew Point: 40°   Wind: 0mph
Humidity: 97%   Direction: NA
Pressure: 29.94"   Gusts: NA
Location:  43.19°N, 84.47°W
Report Text: KAMN 250255Z AUTO 00000KT 1/2SM OVC009 05/04 A2994 RMK AO2 T00490044 PWINO
Loading
Personal Weather Stations






























Interactive Weather Map
Tropical Storm Tracking
New forecast layout! Learn more

10-Day Weather Forecast

Advertisements
Track Severe Weather on mobile